sensor_id;sensor_type;location;lat;lon;timestamp;pressure;altitude;pressure_sealevel;temperature;humidity
48027;BME280;50714;49.208;5.364;2023-12-28T00:04:57;99394.19;;;8.97;89.75
48027;BME280;50714;49.208;5.364;2023-12-28T00:14:58;99400.94;;;8.86;93.01
48027;BME280;50714;49.208;5.364;2023-12-28T00:24:58;99387.41;;;8.80;97.63
48027;BME280;50714;49.208;5.364;2023-12-28T00:34:58;99413.03;;;8.76;100.00
48027;BME280;50714;49.208;5.364;2023-12-28T00:44:59;99412.66;;;8.79;100.00
48027;BME280;50714;49.208;5.364;2023-12-28T00:54:59;99432.72;;;8.76;100.00
48027;BME280;50714;49.208;5.364;2023-12-28T01:04:59;99460.91;;;8.80;100.00
48027;BME280;50714;49.208;5.364;2023-12-28T01:15:00;99456.06;;;8.69;100.00
48027;BME280;50714;49.208;5.364;2023-12-28T01:25:00;99470.19;;;8.57;100.00
48027;BME280;50714;49.208;5.364;2023-12-28T01:35:01;99478.78;;;8.45;100.00
48027;BME280;50714;49.208;5.364;2023-12-28T01:45:02;99500.09;;;8.47;100.00
48027;BME280;50714;49.208;5.364;2023-12-28T01:55:03;99492.03;;;8.47;100.00
48027;BME280;50714;49.208;5.364;2023-12-28T02:05:05;99480.91;;;8.50;100.00
48027;BME280;50714;49.208;5.364;2023-12-28T02:15:05;99483.19;;;8.53;100.00
48027;BME280;50714;49.208;5.364;2023-12-28T02:25:07;99504.13;;;8.58;100.00
48027;BME280;50714;49.208;5.364;2023-12-28T02:35:17;99511.25;;;8.65;100.00
48027;BME280;50714;49.208;5.364;2023-12-28T02:45:19;99520.44;;;8.71;100.00
48027;BME280;50714;49.208;5.364;2023-12-28T02:55:20;99503.31;;;8.78;100.00
48027;BME280;50714;49.208;5.364;2023-12-28T03:05:20;99528.00;;;8.82;100.00
48027;BME280;50714;49.208;5.364;2023-12-28T03:15:20;99529.09;;;8.87;100.00
48027;BME280;50714;49.208;5.364;2023-12-28T03:25:20;99517.09;;;8.90;100.00
48027;BME280;50714;49.208;5.364;2023-12-28T03:35:21;99492.88;;;8.90;100.00
48027;BME280;50714;49.208;5.364;2023-12-28T03:45:21;99488.66;;;8.81;100.00
48027;BME280;50714;49.208;5.364;2023-12-28T03:55:21;99507.94;;;8.84;100.00
48027;BME280;50714;49.208;5.364;2023-12-28T04:05:22;99503.00;;;8.88;100.00
48027;BME280;50714;49.208;5.364;2023-12-28T04:15:22;99513.00;;;8.94;100.00
48027;BME280;50714;49.208;5.364;2023-12-28T04:25:22;99509.53;;;9.00;100.00
48027;BME280;50714;49.208;5.364;2023-12-28T04:35:22;99505.03;;;9.07;100.00
48027;BME280;50714;49.208;5.364;2023-12-28T04:45:23;99503.84;;;9.10;100.00
48027;BME280;50714;49.208;5.364;2023-12-28T04:55:23;99509.59;;;9.07;100.00
48027;BME280;50714;49.208;5.364;2023-12-28T05:05:24;99518.31;;;9.09;100.00
48027;BME280;50714;49.208;5.364;2023-12-28T05:15:24;99502.44;;;9.14;100.00
48027;BME280;50714;49.208;5.364;2023-12-28T05:25:25;99495.81;;;9.16;100.00
48027;BME280;50714;49.208;5.364;2023-12-28T05:35:25;99502.22;;;9.15;100.00
48027;BME280;50714;49.208;5.364;2023-12-28T05:45:25;99505.56;;;9.17;100.00
48027;BME280;50714;49.208;5.364;2023-12-28T05:55:26;99533.72;;;9.15;100.00
48027;BME280;50714;49.208;5.364;2023-12-28T06:05:26;99535.00;;;9.19;100.00
48027;BME280;50714;49.208;5.364;2023-12-28T06:15:26;99552.59;;;9.21;100.00
48027;BME280;50714;49.208;5.364;2023-12-28T06:25:27;99553.69;;;9.27;100.00
48027;BME280;50714;49.208;5.364;2023-12-28T06:35:27;99551.19;;;9.26;100.00
48027;BME280;50714;49.208;5.364;2023-12-28T06:45:27;99551.44;;;9.31;100.00
48027;BME280;50714;49.208;5.364;2023-12-28T06:55:28;99555.16;;;9.30;100.00
48027;BME280;50714;49.208;5.364;2023-12-28T07:05:28;99571.97;;;9.32;100.00
48027;BME280;50714;49.208;5.364;2023-12-28T07:15:28;99558.88;;;9.29;100.00
48027;BME280;50714;49.208;5.364;2023-12-28T07:25:28;99580.44;;;9.29;100.00
48027;BME280;50714;49.208;5.364;2023-12-28T07:35:29;99564.19;;;9.22;100.00
48027;BME280;50714;49.208;5.364;2023-12-28T07:45:29;99583.31;;;9.27;100.00
48027;BME280;50714;49.208;5.364;2023-12-28T07:55:30;99584.16;;;9.28;100.00
48027;BME280;50714;49.208;5.364;2023-12-28T08:05:30;99593.78;;;9.37;100.00
48027;BME280;50714;49.208;5.364;2023-12-28T08:15:30;99588.00;;;9.40;100.00
48027;BME280;50714;49.208;5.364;2023-12-28T08:25:31;99588.88;;;9.47;100.00
48027;BME280;50714;49.208;5.364;2023-12-28T08:35:31;99585.41;;;9.53;100.00
48027;BME280;50714;49.208;5.364;2023-12-28T08:45:31;99588.63;;;9.63;100.00
48027;BME280;50714;49.208;5.364;2023-12-28T08:55:32;99597.75;;;9.69;100.00
48027;BME280;50714;49.208;5.364;2023-12-28T09:05:34;99591.34;;;9.70;100.00
48027;BME280;50714;49.208;5.364;2023-12-28T09:15:34;99604.44;;;9.73;100.00
48027;BME280;50714;49.208;5.364;2023-12-28T09:25:36;99604.03;;;9.76;100.00
48027;BME280;50714;49.208;5.364;2023-12-28T09:35:38;99613.22;;;9.81;100.00
48027;BME280;50714;49.208;5.364;2023-12-28T09:45:38;99618.66;;;9.88;100.00
48027;BME280;50714;49.208;5.364;2023-12-28T09:55:39;99625.09;;;9.87;100.00
48027;BME280;50714;49.208;5.364;2023-12-28T10:05:46;99636.06;;;9.85;100.00
48027;BME280;50714;49.208;5.364;2023-12-28T10:15:48;99649.66;;;9.77;100.00
48027;BME280;50714;49.208;5.364;2023-12-28T10:25:50;99646.25;;;9.69;100.00
48027;BME280;50714;49.208;5.364;2023-12-28T10:35:57;99643.97;;;9.66;100.00
48027;BME280;50714;49.208;5.364;2023-12-28T10:45:58;99644.94;;;9.58;100.00
48027;BME280;50714;49.208;5.364;2023-12-28T10:56:09;99622.63;;;9.64;100.00
48027;BME280;50714;49.208;5.364;2023-12-28T11:06:12;99608.69;;;9.61;100.00
48027;BME280;50714;49.208;5.364;2023-12-28T11:16:14;99616.63;;;9.69;100.00
48027;BME280;50714;49.208;5.364;2023-12-28T11:26:18;99600.69;;;9.67;100.00
48027;BME280;50714;49.208;5.364;2023-12-28T11:36:44;99599.03;;;9.73;100.00
48027;BME280;50714;49.208;5.364;2023-12-28T11:46:45;99587.19;;;9.67;100.00
48027;BME280;50714;49.208;5.364;2023-12-28T11:56:45;99579.72;;;9.69;100.00
48027;BME280;50714;49.208;5.364;2023-12-28T12:06:47;99581.41;;;9.70;100.00
48027;BME280;50714;49.208;5.364;2023-12-28T12:16:47;99577.72;;;9.78;100.00
48027;BME280;50714;49.208;5.364;2023-12-28T12:26:49;99557.31;;;9.90;100.00
48027;BME280;50714;49.208;5.364;2023-12-28T12:36:50;99545.31;;;9.99;100.00
48027;BME280;50714;49.208;5.364;2023-12-28T12:46:57;99543.91;;;10.03;100.00
48027;BME280;50714;49.208;5.364;2023-12-28T12:57:01;99537.53;;;10.11;100.00
48027;BME280;50714;49.208;5.364;2023-12-28T13:07:02;99528.25;;;10.20;100.00
48027;BME280;50714;49.208;5.364;2023-12-28T13:17:03;99515.81;;;10.25;100.00
48027;BME280;50714;49.208;5.364;2023-12-28T13:27:04;99504.44;;;10.30;100.00
48027;BME280;50714;49.208;5.364;2023-12-28T13:37:04;99504.06;;;10.46;100.00
48027;BME280;50714;49.208;5.364;2023-12-28T13:47:05;99502.84;;;10.49;100.00
48027;BME280;50714;49.208;5.364;2023-12-28T13:57:08;99498.66;;;10.40;100.00
48027;BME280;50714;49.208;5.364;2023-12-28T14:07:08;99484.09;;;10.28;100.00
48027;BME280;50714;49.208;5.364;2023-12-28T14:17:08;99491.88;;;10.16;100.00
48027;BME280;50714;49.208;5.364;2023-12-28T14:27:09;99496.00;;;10.05;100.00
48027;BME280;50714;49.208;5.364;2023-12-28T14:37:11;99513.16;;;9.98;100.00
48027;BME280;50714;49.208;5.364;2023-12-28T14:47:12;99509.13;;;9.80;100.00
48027;BME280;50714;49.208;5.364;2023-12-28T14:57:12;99507.81;;;9.70;100.00
48027;BME280;50714;49.208;5.364;2023-12-28T15:07:12;99499.25;;;9.60;100.00
48027;BME280;50714;49.208;5.364;2023-12-28T15:17:13;99518.94;;;9.60;100.00
48027;BME280;50714;49.208;5.364;2023-12-28T15:27:13;99502.34;;;9.56;100.00
48027;BME280;50714;49.208;5.364;2023-12-28T15:37:14;99495.88;;;9.51;100.00
48027;BME280;50714;49.208;5.364;2023-12-28T15:47:14;99499.34;;;9.45;100.00
48027;BME280;50714;49.208;5.364;2023-12-28T15:57:14;99496.44;;;9.40;100.00
48027;BME280;50714;49.208;5.364;2023-12-28T16:07:14;99488.97;;;9.42;100.00
48027;BME280;50714;49.208;5.364;2023-12-28T16:17:15;99495.53;;;9.33;100.00
48027;BME280;50714;49.208;5.364;2023-12-28T16:27:16;99497.19;;;9.34;100.00
48027;BME280;50714;49.208;5.364;2023-12-28T16:37:16;99493.41;;;9.28;100.00
48027;BME280;50714;49.208;5.364;2023-12-28T16:47:18;99483.47;;;9.29;100.00
48027;BME280;50714;49.208;5.364;2023-12-28T16:57:18;99492.97;;;9.24;100.00
48027;BME280;50714;49.208;5.364;2023-12-28T17:07:18;99508.75;;;9.28;100.00
48027;BME280;50714;49.208;5.364;2023-12-28T17:17:19;99499.81;;;9.27;100.00
48027;BME280;50714;49.208;5.364;2023-12-28T17:27:27;99487.38;;;9.26;100.00
48027;BME280;50714;49.208;5.364;2023-12-28T17:37:28;99497.59;;;9.31;100.00
48027;BME280;50714;49.208;5.364;2023-12-28T17:47:34;99478.16;;;9.35;100.00
48027;BME280;50714;49.208;5.364;2023-12-28T17:57:36;99478.78;;;9.37;100.00
48027;BME280;50714;49.208;5.364;2023-12-28T18:07:36;99486.03;;;9.37;100.00
48027;BME280;50714;49.208;5.364;2023-12-28T18:17:36;99488.53;;;9.38;100.00
48027;BME280;50714;49.208;5.364;2023-12-28T18:27:37;99485.00;;;9.38;100.00
48027;BME280;50714;49.208;5.364;2023-12-28T18:37:37;99499.13;;;9.40;100.00
48027;BME280;50714;49.208;5.364;2023-12-28T18:47:39;99507.19;;;9.40;100.00
48027;BME280;50714;49.208;5.364;2023-12-28T18:57:40;99494.38;;;9.42;100.00
48027;BME280;50714;49.208;5.364;2023-12-28T19:07:41;99497.25;;;9.40;100.00
48027;BME280;50714;49.208;5.364;2023-12-28T19:17:41;99501.63;;;9.41;100.00
48027;BME280;50714;49.208;5.364;2023-12-28T19:27:42;99500.78;;;9.41;100.00
48027;BME280;50714;49.208;5.364;2023-12-28T19:37:43;99512.13;;;9.36;100.00
48027;BME280;50714;49.208;5.364;2023-12-28T19:47:43;99487.31;;;9.41;100.00
48027;BME280;50714;49.208;5.364;2023-12-28T19:57:43;99490.19;;;9.39;100.00
48027;BME280;50714;49.208;5.364;2023-12-28T20:07:43;99480.84;;;9.35;100.00
48027;BME280;50714;49.208;5.364;2023-12-28T20:17:44;99494.13;;;9.37;100.00
48027;BME280;50714;49.208;5.364;2023-12-28T20:27:44;99485.66;;;9.40;100.00
48027;BME280;50714;49.208;5.364;2023-12-28T20:37:44;99481.94;;;9.41;100.00
48027;BME280;50714;49.208;5.364;2023-12-28T20:47:45;99481.94;;;9.41;100.00
48027;BME280;50714;49.208;5.364;2023-12-28T20:57:45;99490.66;;;9.43;100.00
48027;BME280;50714;49.208;5.364;2023-12-28T21:07:45;99491.69;;;9.42;100.00
48027;BME280;50714;49.208;5.364;2023-12-28T21:17:46;99487.94;;;9.43;100.00
48027;BME280;50714;49.208;5.364;2023-12-28T21:27:46;99509.25;;;9.38;100.00
48027;BME280;50714;49.208;5.364;2023-12-28T21:37:46;99515.28;;;9.40;100.00
48027;BME280;50714;49.208;5.364;2023-12-28T21:47:47;99497.66;;;9.37;100.00
48027;BME280;50714;49.208;5.364;2023-12-28T21:57:47;99493.09;;;9.38;100.00
48027;BME280;50714;49.208;5.364;2023-12-28T22:07:47;99487.50;;;9.39;100.00
48027;BME280;50714;49.208;5.364;2023-12-28T22:17:48;99487.06;;;9.36;100.00
48027;BME280;50714;49.208;5.364;2023-12-28T22:27:48;99493.28;;;9.36;100.00
48027;BME280;50714;49.208;5.364;2023-12-28T22:37:49;99506.09;;;9.34;100.00
48027;BME280;50714;49.208;5.364;2023-12-28T22:47:49;99502.19;;;9.37;100.00
48027;BME280;50714;49.208;5.364;2023-12-28T22:57:49;99507.38;;;9.38;100.00
48027;BME280;50714;49.208;5.364;2023-12-28T23:07:54;99485.66;;;9.40;100.00
48027;BME280;50714;49.208;5.364;2023-12-28T23:17:58;99484.19;;;9.37;100.00
48027;BME280;50714;49.208;5.364;2023-12-28T23:27:59;99483.66;;;9.27;100.00
48027;BME280;50714;49.208;5.364;2023-12-28T23:37:59;99476.63;;;9.26;100.00
48027;BME280;50714;49.208;5.364;2023-12-28T23:47:59;99484.69;;;9.26;100.00
48027;BME280;50714;49.208;5.364;2023-12-28T23:57:59;99482.59;;;9.21;100.00
